Kelly, Georgia
Current Conditions -  °F | °C
As of 6:55 PM on Monday 20 Oct 2014 (Local Time) from KCVC Reporting Station
Clear Clear  
Wind Chill: 66°   Ceiling: Unl
Heat Index: 66°   Visibility: 10mi
Dew Point: 55°   Wind: 0mph
Humidity: 68%   Direction: NA
Pressure: 30"   Gusts: NA
Location:  33.4001°N, 83.6636°W
Report Text: KCVC 202255Z AUTO 00000KT 10SM CLR 19/13 A3000 RMK AO2
Loading
Personal Weather Stations






























Interactive Weather Map
Tropical Storm Tracking
New forecast layout! Learn more

10-Day Weather Forecast

Advertisements
Track Severe Weather on mobile